sensor_id;sensor_type;location;lat;lon;timestamp;temperature;humidity
10121;DHT22;5100;45.176;5.714;2023-03-14T00:00:16;16.70;77.40
10121;DHT22;5100;45.176;5.714;2023-03-14T00:02:43;16.70;77.30
10121;DHT22;5100;45.176;5.714;2023-03-14T00:05:10;16.60;77.60
10121;DHT22;5100;45.176;5.714;2023-03-14T00:07:38;16.60;77.90
10121;DHT22;5100;45.176;5.714;2023-03-14T00:10:09;16.60;77.80
10121;DHT22;5100;45.176;5.714;2023-03-14T00:12:36;16.60;77.40
10121;DHT22;5100;45.176;5.714;2023-03-14T00:15:02;16.60;77.10
10121;DHT22;5100;45.176;5.714;2023-03-14T00:17:31;16.50;77.20
10121;DHT22;5100;45.176;5.714;2023-03-14T00:19:57;16.50;77.30
10121;DHT22;5100;45.176;5.714;2023-03-14T00:22:35;16.50;77.40
10121;DHT22;5100;45.176;5.714;2023-03-14T00:25:02;16.50;77.60
10121;DHT22;5100;45.176;5.714;2023-03-14T00:27:28;16.50;77.70
10121;DHT22;5100;45.176;5.714;2023-03-14T00:29:55;16.50;77.70
10121;DHT22;5100;45.176;5.714;2023-03-14T00:32:22;16.40;77.80
10121;DHT22;5100;45.176;5.714;2023-03-14T00:34:48;16.50;77.80
10121;DHT22;5100;45.176;5.714;2023-03-14T00:37:14;16.50;77.90
10121;DHT22;5100;45.176;5.714;2023-03-14T00:39:40;16.50;77.70
10121;DHT22;5100;45.176;5.714;2023-03-14T00:42:07;16.50;77.80
10121;DHT22;5100;45.176;5.714;2023-03-14T00:44:34;16.50;77.50
10121;DHT22;5100;45.176;5.714;2023-03-14T00:47:00;16.50;78.00
10121;DHT22;5100;45.176;5.714;2023-03-14T00:49:26;16.50;78.30
10121;DHT22;5100;45.176;5.714;2023-03-14T00:51:53;16.50;78.50
10121;DHT22;5100;45.176;5.714;2023-03-14T00:54:19;16.50;78.60
10121;DHT22;5100;45.176;5.714;2023-03-14T00:56:46;16.60;78.70
10121;DHT22;5100;45.176;5.714;2023-03-14T00:59:13;16.60;78.70
10121;DHT22;5100;45.176;5.714;2023-03-14T01:01:39;16.60;78.20
10121;DHT22;5100;45.176;5.714;2023-03-14T01:04:06;16.60;77.70
10121;DHT22;5100;45.176;5.714;2023-03-14T01:06:33;16.60;77.50
10121;DHT22;5100;45.176;5.714;2023-03-14T01:09:00;16.60;77.50
10121;DHT22;5100;45.176;5.714;2023-03-14T01:11:32;16.60;78.00
10121;DHT22;5100;45.176;5.714;2023-03-14T01:13:59;16.60;78.30
10121;DHT22;5100;45.176;5.714;2023-03-14T01:16:30;16.60;78.20
10121;DHT22;5100;45.176;5.714;2023-03-14T01:19:00;16.60;77.80
10121;DHT22;5100;45.176;5.714;2023-03-14T01:21:32;16.60;77.80
10121;DHT22;5100;45.176;5.714;2023-03-14T01:24:00;16.60;78.00
10121;DHT22;5100;45.176;5.714;2023-03-14T01:26:30;16.60;77.90
10121;DHT22;5100;45.176;5.714;2023-03-14T01:28:57;16.60;77.70
10121;DHT22;5100;45.176;5.714;2023-03-14T01:31:24;16.60;77.80
10121;DHT22;5100;45.176;5.714;2023-03-14T01:33:52;16.60;77.40
10121;DHT22;5100;45.176;5.714;2023-03-14T01:36:18;16.60;77.40
10121;DHT22;5100;45.176;5.714;2023-03-14T01:38:45;16.60;77.50
10121;DHT22;5100;45.176;5.714;2023-03-14T01:41:16;16.60;77.70
10121;DHT22;5100;45.176;5.714;2023-03-14T01:43:43;16.60;78.00
10121;DHT22;5100;45.176;5.714;2023-03-14T01:48:51;16.60;78.20
10121;DHT22;5100;45.176;5.714;2023-03-14T01:54:08;16.60;78.30
10121;DHT22;5100;45.176;5.714;2023-03-14T01:56:36;16.60;78.30
10121;DHT22;5100;45.176;5.714;2023-03-14T01:59:04;16.60;78.10
10121;DHT22;5100;45.176;5.714;2023-03-14T02:01:32;16.50;78.20
10121;DHT22;5100;45.176;5.714;2023-03-14T02:04:02;16.50;78.00
10121;DHT22;5100;45.176;5.714;2023-03-14T02:06:39;16.50;77.80
10121;DHT22;5100;45.176;5.714;2023-03-14T02:09:07;16.50;77.60
10121;DHT22;5100;45.176;5.714;2023-03-14T02:11:34;16.50;77.60
10121;DHT22;5100;45.176;5.714;2023-03-14T02:14:01;16.50;77.50
10121;DHT22;5100;45.176;5.714;2023-03-14T02:16:31;16.50;77.40
10121;DHT22;5100;45.176;5.714;2023-03-14T02:18:58;16.50;77.40
10121;DHT22;5100;45.176;5.714;2023-03-14T02:24:09;16.50;77.70
10121;DHT22;5100;45.176;5.714;2023-03-14T02:29:32;16.50;77.90
10121;DHT22;5100;45.176;5.714;2023-03-14T02:32:00;16.40;77.80
10121;DHT22;5100;45.176;5.714;2023-03-14T02:34:27;16.40;77.50
10121;DHT22;5100;45.176;5.714;2023-03-14T02:36:54;16.40;77.50
10121;DHT22;5100;45.176;5.714;2023-03-14T02:39:26;16.40;77.60
10121;DHT22;5100;45.176;5.714;2023-03-14T02:41:55;16.40;77.60
10121;DHT22;5100;45.176;5.714;2023-03-14T02:44:21;16.40;77.30
10121;DHT22;5100;45.176;5.714;2023-03-14T02:46:48;16.40;77.30
10121;DHT22;5100;45.176;5.714;2023-03-14T02:49:14;16.40;77.20
10121;DHT22;5100;45.176;5.714;2023-03-14T02:51:41;16.40;77.20
10121;DHT22;5100;45.176;5.714;2023-03-14T02:54:09;16.40;76.80
10121;DHT22;5100;45.176;5.714;2023-03-14T02:56:36;16.40;76.50
10121;DHT22;5100;45.176;5.714;2023-03-14T02:59:04;16.40;76.30
10121;DHT22;5100;45.176;5.714;2023-03-14T03:01:32;16.40;76.30
10121;DHT22;5100;45.176;5.714;2023-03-14T03:03:59;16.30;76.30
10121;DHT22;5100;45.176;5.714;2023-03-14T03:06:26;16.40;76.30
10121;DHT22;5100;45.176;5.714;2023-03-14T03:08:53;16.40;76.60
10121;DHT22;5100;45.176;5.714;2023-03-14T03:11:20;16.30;76.90
10121;DHT22;5100;45.176;5.714;2023-03-14T03:13:46;16.40;76.60
10121;DHT22;5100;45.176;5.714;2023-03-14T03:16:13;16.30;76.30
10121;DHT22;5100;45.176;5.714;2023-03-14T03:18:41;16.30;76.20
10121;DHT22;5100;45.176;5.714;2023-03-14T03:21:07;16.30;76.10
10121;DHT22;5100;45.176;5.714;2023-03-14T03:23:35;16.30;76.10
10121;DHT22;5100;45.176;5.714;2023-03-14T03:26:04;16.30;76.30
10121;DHT22;5100;45.176;5.714;2023-03-14T03:28:30;16.30;76.40
10121;DHT22;5100;45.176;5.714;2023-03-14T03:30:57;16.30;76.30
10121;DHT22;5100;45.176;5.714;2023-03-14T03:33:24;16.20;76.40
10121;DHT22;5100;45.176;5.714;2023-03-14T03:35:51;16.20;76.40
10121;DHT22;5100;45.176;5.714;2023-03-14T03:38:18;16.20;76.30
10121;DHT22;5100;45.176;5.714;2023-03-14T03:40:48;16.20;76.10
10121;DHT22;5100;45.176;5.714;2023-03-14T03:43:14;16.20;75.80
10121;DHT22;5100;45.176;5.714;2023-03-14T03:45:41;16.20;75.90
10121;DHT22;5100;45.176;5.714;2023-03-14T03:48:07;16.20;76.00
10121;DHT22;5100;45.176;5.714;2023-03-14T03:50:33;16.20;75.80
10121;DHT22;5100;45.176;5.714;2023-03-14T03:53:00;16.20;76.10
10121;DHT22;5100;45.176;5.714;2023-03-14T03:55:27;16.20;76.30
10121;DHT22;5100;45.176;5.714;2023-03-14T03:57:54;16.20;76.40
10121;DHT22;5100;45.176;5.714;2023-03-14T04:00:20;16.20;76.40
10121;DHT22;5100;45.176;5.714;2023-03-14T04:02:46;16.20;76.30
10121;DHT22;5100;45.176;5.714;2023-03-14T04:05:13;16.20;76.20
10121;DHT22;5100;45.176;5.714;2023-03-14T04:07:41;16.10;76.40
10121;DHT22;5100;45.176;5.714;2023-03-14T04:10:09;16.10;76.30
10121;DHT22;5100;45.176;5.714;2023-03-14T04:12:35;16.10;76.10
10121;DHT22;5100;45.176;5.714;2023-03-14T04:15:02;16.10;76.00
10121;DHT22;5100;45.176;5.714;2023-03-14T04:17:29;16.10;76.00
10121;DHT22;5100;45.176;5.714;2023-03-14T04:19:56;16.10;76.00
10121;DHT22;5100;45.176;5.714;2023-03-14T04:22:23;16.10;76.00
10121;DHT22;5100;45.176;5.714;2023-03-14T04:24:51;16.10;75.90
10121;DHT22;5100;45.176;5.714;2023-03-14T04:27:18;16.10;75.80
10121;DHT22;5100;45.176;5.714;2023-03-14T04:29:45;16.00;75.90
10121;DHT22;5100;45.176;5.714;2023-03-14T04:32:13;16.00;76.00
10121;DHT22;5100;45.176;5.714;2023-03-14T04:34:41;16.00;75.70
10121;DHT22;5100;45.176;5.714;2023-03-14T04:37:07;16.00;75.80
10121;DHT22;5100;45.176;5.714;2023-03-14T04:39:34;16.00;75.70
10121;DHT22;5100;45.176;5.714;2023-03-14T04:42:02;16.00;75.40
10121;DHT22;5100;45.176;5.714;2023-03-14T04:44:29;16.00;75.30
10121;DHT22;5100;45.176;5.714;2023-03-14T04:46:56;15.90;75.30
10121;DHT22;5100;45.176;5.714;2023-03-14T04:49:23;15.90;75.40
10121;DHT22;5100;45.176;5.714;2023-03-14T04:51:49;15.90;75.60
10121;DHT22;5100;45.176;5.714;2023-03-14T04:54:20;15.90;75.50
10121;DHT22;5100;45.176;5.714;2023-03-14T04:56:48;15.90;75.30
10121;DHT22;5100;45.176;5.714;2023-03-14T04:59:15;15.90;75.20
10121;DHT22;5100;45.176;5.714;2023-03-14T05:01:42;15.90;75.60
10121;DHT22;5100;45.176;5.714;2023-03-14T05:04:09;15.80;75.70
10121;DHT22;5100;45.176;5.714;2023-03-14T05:06:36;15.80;75.40
10121;DHT22;5100;45.176;5.714;2023-03-14T05:09:03;15.80;75.40
10121;DHT22;5100;45.176;5.714;2023-03-14T05:11:31;15.80;75.80
10121;DHT22;5100;45.176;5.714;2023-03-14T05:13:58;15.80;75.90
10121;DHT22;5100;45.176;5.714;2023-03-14T05:16:26;15.80;75.80
10121;DHT22;5100;45.176;5.714;2023-03-14T05:18:52;15.80;76.00
10121;DHT22;5100;45.176;5.714;2023-03-14T05:21:22;15.80;76.00
10121;DHT22;5100;45.176;5.714;2023-03-14T05:23:49;15.80;75.90
10121;DHT22;5100;45.176;5.714;2023-03-14T05:26:15;15.80;75.70
10121;DHT22;5100;45.176;5.714;2023-03-14T05:28:43;15.80;75.40
10121;DHT22;5100;45.176;5.714;2023-03-14T05:31:10;15.80;75.30
10121;DHT22;5100;45.176;5.714;2023-03-14T05:33:39;15.80;75.10
10121;DHT22;5100;45.176;5.714;2023-03-14T05:36:06;15.80;74.90
10121;DHT22;5100;45.176;5.714;2023-03-14T05:38:33;15.80;74.50
10121;DHT22;5100;45.176;5.714;2023-03-14T05:41:00;15.70;74.70
10121;DHT22;5100;45.176;5.714;2023-03-14T05:43:27;15.70;75.40
10121;DHT22;5100;45.176;5.714;2023-03-14T05:45:55;15.70;75.40
10121;DHT22;5100;45.176;5.714;2023-03-14T05:48:22;15.70;75.70
10121;DHT22;5100;45.176;5.714;2023-03-14T05:50:54;15.70;76.00
10121;DHT22;5100;45.176;5.714;2023-03-14T05:53:22;15.70;76.00
10121;DHT22;5100;45.176;5.714;2023-03-14T05:55:52;15.70;75.70
10121;DHT22;5100;45.176;5.714;2023-03-14T05:58:19;15.70;75.40
10121;DHT22;5100;45.176;5.714;2023-03-14T06:00:45;15.70;75.40
10121;DHT22;5100;45.176;5.714;2023-03-14T06:03:13;15.70;75.20
10121;DHT22;5100;45.176;5.714;2023-03-14T06:05:40;15.70;75.30
10121;DHT22;5100;45.176;5.714;2023-03-14T06:08:07;15.70;75.80
10121;DHT22;5100;45.176;5.714;2023-03-14T06:10:35;15.70;75.80
10121;DHT22;5100;45.176;5.714;2023-03-14T06:13:01;15.70;75.60
10121;DHT22;5100;45.176;5.714;2023-03-14T06:15:28;15.70;75.90
10121;DHT22;5100;45.176;5.714;2023-03-14T06:17:56;15.70;76.40
10121;DHT22;5100;45.176;5.714;2023-03-14T06:20:22;15.70;76.60
10121;DHT22;5100;45.176;5.714;2023-03-14T06:22:48;15.70;76.80
10121;DHT22;5100;45.176;5.714;2023-03-14T06:25:15;15.70;76.70
10121;DHT22;5100;45.176;5.714;2023-03-14T06:27:44;15.70;76.10
10121;DHT22;5100;45.176;5.714;2023-03-14T06:30:10;15.70;75.80
10121;DHT22;5100;45.176;5.714;2023-03-14T06:32:37;15.70;75.90
10121;DHT22;5100;45.176;5.714;2023-03-14T06:35:05;15.70;76.10
10121;DHT22;5100;45.176;5.714;2023-03-14T06:37:33;15.60;76.60
10121;DHT22;5100;45.176;5.714;2023-03-14T06:40:01;15.70;76.70
10121;DHT22;5100;45.176;5.714;2023-03-14T06:42:29;15.70;76.30
10121;DHT22;5100;45.176;5.714;2023-03-14T06:44:56;15.60;76.10
10121;DHT22;5100;45.176;5.714;2023-03-14T06:47:25;15.60;76.40
10121;DHT22;5100;45.176;5.714;2023-03-14T06:49:52;15.60;77.00
10121;DHT22;5100;45.176;5.714;2023-03-14T06:52:18;15.60;77.00
10121;DHT22;5100;45.176;5.714;2023-03-14T06:54:44;15.60;76.90
10121;DHT22;5100;45.176;5.714;2023-03-14T06:57:11;15.60;76.70
10121;DHT22;5100;45.176;5.714;2023-03-14T06:59:37;15.60;76.40
10121;DHT22;5100;45.176;5.714;2023-03-14T07:02:03;15.60;76.40
10121;DHT22;5100;45.176;5.714;2023-03-14T07:04:29;15.60;76.50
10121;DHT22;5100;45.176;5.714;2023-03-14T07:06:55;15.60;76.30
10121;DHT22;5100;45.176;5.714;2023-03-14T07:09:23;15.60;75.80
10121;DHT22;5100;45.176;5.714;2023-03-14T07:11:49;15.60;75.60
10121;DHT22;5100;45.176;5.714;2023-03-14T07:14:16;15.60;75.80
10121;DHT22;5100;45.176;5.714;2023-03-14T07:16:42;15.60;76.10
10121;DHT22;5100;45.176;5.714;2023-03-14T07:19:08;15.60;76.20
10121;DHT22;5100;45.176;5.714;2023-03-14T07:21:35;15.60;76.30
10121;DHT22;5100;45.176;5.714;2023-03-14T07:24:03;15.60;76.00
10121;DHT22;5100;45.176;5.714;2023-03-14T07:26:31;15.60;75.60
10121;DHT22;5100;45.176;5.714;2023-03-14T07:28:57;15.60;75.70
10121;DHT22;5100;45.176;5.714;2023-03-14T07:31:24;15.60;76.10
10121;DHT22;5100;45.176;5.714;2023-03-14T07:33:50;15.70;76.70
10121;DHT22;5100;45.176;5.714;2023-03-14T07:36:17;15.70;76.80
10121;DHT22;5100;45.176;5.714;2023-03-14T07:38:43;15.70;76.90
10121;DHT22;5100;45.176;5.714;2023-03-14T07:41:10;15.70;76.90
10121;DHT22;5100;45.176;5.714;2023-03-14T07:43:37;15.70;77.20
10121;DHT22;5100;45.176;5.714;2023-03-14T07:46:03;15.70;77.30
10121;DHT22;5100;45.176;5.714;2023-03-14T07:48:29;15.70;76.50
10121;DHT22;5100;45.176;5.714;2023-03-14T07:50:56;15.70;76.30
10121;DHT22;5100;45.176;5.714;2023-03-14T07:53:24;15.70;76.20
10121;DHT22;5100;45.176;5.714;2023-03-14T07:55:54;15.70;75.80
10121;DHT22;5100;45.176;5.714;2023-03-14T07:58:21;15.70;75.60
10121;DHT22;5100;45.176;5.714;2023-03-14T08:00:51;15.70;75.80
10121;DHT22;5100;45.176;5.714;2023-03-14T08:03:18;15.70;76.30
10121;DHT22;5100;45.176;5.714;2023-03-14T08:05:47;15.70;76.00
10121;DHT22;5100;45.176;5.714;2023-03-14T08:08:14;15.70;75.60
10121;DHT22;5100;45.176;5.714;2023-03-14T08:10:40;15.70;75.80
10121;DHT22;5100;45.176;5.714;2023-03-14T08:13:06;15.70;76.30
10121;DHT22;5100;45.176;5.714;2023-03-14T08:15:32;15.70;75.80
10121;DHT22;5100;45.176;5.714;2023-03-14T08:17:58;15.70;75.40
10121;DHT22;5100;45.176;5.714;2023-03-14T08:20:27;15.70;75.20
10121;DHT22;5100;45.176;5.714;2023-03-14T08:22:59;15.70;75.10
10121;DHT22;5100;45.176;5.714;2023-03-14T08:25:26;15.70;75.00
10121;DHT22;5100;45.176;5.714;2023-03-14T08:27:53;15.70;75.00
10121;DHT22;5100;45.176;5.714;2023-03-14T08:30:20;15.70;74.80
10121;DHT22;5100;45.176;5.714;2023-03-14T08:32:47;15.60;74.90
10121;DHT22;5100;45.176;5.714;2023-03-14T08:35:14;15.60;75.20
10121;DHT22;5100;45.176;5.714;2023-03-14T08:37:40;15.60;75.30
10121;DHT22;5100;45.176;5.714;2023-03-14T08:40:08;15.60;75.50
10121;DHT22;5100;45.176;5.714;2023-03-14T08:42:36;15.60;75.50
10121;DHT22;5100;45.176;5.714;2023-03-14T08:45:03;15.60;75.50
10121;DHT22;5100;45.176;5.714;2023-03-14T08:47:29;15.60;75.70
10121;DHT22;5100;45.176;5.714;2023-03-14T08:49:56;15.60;75.60
10121;DHT22;5100;45.176;5.714;2023-03-14T08:52:22;15.60;75.70
10121;DHT22;5100;45.176;5.714;2023-03-14T08:54:48;15.60;75.70
10121;DHT22;5100;45.176;5.714;2023-03-14T08:57:14;15.60;75.60
10121;DHT22;5100;45.176;5.714;2023-03-14T08:59:40;15.60;75.30
10121;DHT22;5100;45.176;5.714;2023-03-14T09:02:11;15.60;75.50
10121;DHT22;5100;45.176;5.714;2023-03-14T09:04:38;15.60;75.60
10121;DHT22;5100;45.176;5.714;2023-03-14T09:07:04;15.60;75.70
10121;DHT22;5100;45.176;5.714;2023-03-14T09:09:30;15.60;75.40
10121;DHT22;5100;45.176;5.714;2023-03-14T09:11:56;15.60;75.50
10121;DHT22;5100;45.176;5.714;2023-03-14T09:14:23;15.60;75.40
10121;DHT22;5100;45.176;5.714;2023-03-14T09:16:50;15.60;75.80
10121;DHT22;5100;45.176;5.714;2023-03-14T09:19:16;15.60;76.00
10121;DHT22;5100;45.176;5.714;2023-03-14T09:21:42;15.60;75.70
10121;DHT22;5100;45.176;5.714;2023-03-14T09:24:09;15.60;75.40
10121;DHT22;5100;45.176;5.714;2023-03-14T09:26:35;15.70;75.40
10121;DHT22;5100;45.176;5.714;2023-03-14T09:29:01;15.70;75.20
10121;DHT22;5100;45.176;5.714;2023-03-14T09:31:27;15.70;75.10
10121;DHT22;5100;45.176;5.714;2023-03-14T09:33:55;15.70;75.00
10121;DHT22;5100;45.176;5.714;2023-03-14T09:36:21;15.70;74.80
10121;DHT22;5100;45.176;5.714;2023-03-14T09:38:48;15.70;75.00
10121;DHT22;5100;45.176;5.714;2023-03-14T09:41:29;15.70;75.00
10121;DHT22;5100;45.176;5.714;2023-03-14T09:44:04;15.60;75.00
10121;DHT22;5100;45.176;5.714;2023-03-14T09:46:33;15.60;75.30
10121;DHT22;5100;45.176;5.714;2023-03-14T09:49:01;15.60;75.20
10121;DHT22;5100;45.176;5.714;2023-03-14T09:51:28;15.60;75.20
10121;DHT22;5100;45.176;5.714;2023-03-14T09:53:54;15.60;75.10
10121;DHT22;5100;45.176;5.714;2023-03-14T09:56:24;15.60;75.10
10121;DHT22;5100;45.176;5.714;2023-03-14T09:59:00;15.60;75.40
10121;DHT22;5100;45.176;5.714;2023-03-14T10:01:29;15.50;75.60
10121;DHT22;5100;45.176;5.714;2023-03-14T10:04:01;15.50;75.80
10121;DHT22;5100;45.176;5.714;2023-03-14T10:06:30;15.50;75.70
10121;DHT22;5100;45.176;5.714;2023-03-14T10:08:57;15.50;75.70
10121;DHT22;5100;45.176;5.714;2023-03-14T10:11:24;15.50;76.00
10121;DHT22;5100;45.176;5.714;2023-03-14T10:14:11;15.50;76.10
10121;DHT22;5100;45.176;5.714;2023-03-14T10:16:43;15.50;76.20
10121;DHT22;5100;45.176;5.714;2023-03-14T10:19:12;15.50;75.80
10121;DHT22;5100;45.176;5.714;2023-03-14T10:21:41;15.50;75.40
10121;DHT22;5100;45.176;5.714;2023-03-14T10:24:29;15.50;75.30
10121;DHT22;5100;45.176;5.714;2023-03-14T10:27:04;15.60;75.80
10121;DHT22;5100;45.176;5.714;2023-03-14T10:29:32;15.60;76.00
10121;DHT22;5100;45.176;5.714;2023-03-14T10:32:05;15.60;76.40
10121;DHT22;5100;45.176;5.714;2023-03-14T10:34:37;15.60;76.30
10121;DHT22;5100;45.176;5.714;2023-03-14T10:39:55;15.60;75.50
10121;DHT22;5100;45.176;5.714;2023-03-14T10:42:29;15.60;74.80
10121;DHT22;5100;45.176;5.714;2023-03-14T10:45:01;15.60;74.80
10121;DHT22;5100;45.176;5.714;2023-03-14T10:47:29;15.60;74.60
10121;DHT22;5100;45.176;5.714;2023-03-14T10:49:56;15.50;74.70
10121;DHT22;5100;45.176;5.714;2023-03-14T10:52:27;15.50;74.70
10121;DHT22;5100;45.176;5.714;2023-03-14T10:55:01;15.50;74.70
10121;DHT22;5100;45.176;5.714;2023-03-14T10:57:28;15.50;75.20
10121;DHT22;5100;45.176;5.714;2023-03-14T10:59:55;15.50;75.60
10121;DHT22;5100;45.176;5.714;2023-03-14T11:03:00;15.50;75.40
10121;DHT22;5100;45.176;5.714;2023-03-14T11:05:31;15.50;74.40
10121;DHT22;5100;45.176;5.714;2023-03-14T11:08:20;15.50;74.10
10121;DHT22;5100;45.176;5.714;2023-03-14T11:11:15;15.60;74.20
10121;DHT22;5100;45.176;5.714;2023-03-14T11:14:25;15.60;74.60
10121;DHT22;5100;45.176;5.714;2023-03-14T11:16:44;15.70;75.20
10121;DHT22;5100;45.176;5.714;2023-03-14T11:22:09;15.80;74.50
10121;DHT22;5100;45.176;5.714;2023-03-14T11:27:42;16.00;74.10
10121;DHT22;5100;45.176;5.714;2023-03-14T11:30:32;16.10;71.90
10121;DHT22;5100;45.176;5.714;2023-03-14T11:33:14;16.10;71.90
10121;DHT22;5100;45.176;5.714;2023-03-14T11:40:53;16.40;73.10
10121;DHT22;5100;45.176;5.714;2023-03-14T11:43:32;16.50;72.40
10121;DHT22;5100;45.176;5.714;2023-03-14T11:46:12;16.60;71.10
10121;DHT22;5100;45.176;5.714;2023-03-14T11:48:50;16.70;70.30
10121;DHT22;5100;45.176;5.714;2023-03-14T11:51:24;16.70;69.30
10121;DHT22;5100;45.176;5.714;2023-03-14T11:54:12;16.80;69.60
10121;DHT22;5100;45.176;5.714;2023-03-14T11:56:54;16.90;69.20
10121;DHT22;5100;45.176;5.714;2023-03-14T12:02:26;17.00;67.90
10121;DHT22;5100;45.176;5.714;2023-03-14T12:07:51;17.10;67.50
10121;DHT22;5100;45.176;5.714;2023-03-14T12:10:26;17.10;66.50
10121;DHT22;5100;45.176;5.714;2023-03-14T12:12:52;17.20;66.10
10121;DHT22;5100;45.176;5.714;2023-03-14T12:15:21;17.20;65.50
10121;DHT22;5100;45.176;5.714;2023-03-14T12:17:54;17.20;65.80
10121;DHT22;5100;45.176;5.714;2023-03-14T12:20:23;17.30;65.60
10121;DHT22;5100;45.176;5.714;2023-03-14T12:25:22;17.30;63.90
10121;DHT22;5100;45.176;5.714;2023-03-14T12:33:25;17.20;63.70
10121;DHT22;5100;45.176;5.714;2023-03-14T12:35:58;17.20;63.30
10121;DHT22;5100;45.176;5.714;2023-03-14T12:49:45;17.00;65.00
10121;DHT22;5100;45.176;5.714;2023-03-14T12:52:19;16.90;65.60
10121;DHT22;5100;45.176;5.714;2023-03-14T12:55:08;16.90;64.90
10121;DHT22;5100;45.176;5.714;2023-03-14T12:57:43;16.90;64.80
10121;DHT22;5100;45.176;5.714;2023-03-14T13:00:20;16.90;64.60
10121;DHT22;5100;45.176;5.714;2023-03-14T13:02:48;16.90;65.20
10121;DHT22;5100;45.176;5.714;2023-03-14T13:05:18;16.90;65.30
10121;DHT22;5100;45.176;5.714;2023-03-14T13:10:30;17.00;64.50
10121;DHT22;5100;45.176;5.714;2023-03-14T13:13:03;17.00;63.60
10121;DHT22;5100;45.176;5.714;2023-03-14T13:15:40;17.00;64.30
10121;DHT22;5100;45.176;5.714;2023-03-14T13:20:59;17.00;64.60
10121;DHT22;5100;45.176;5.714;2023-03-14T13:23:30;17.00;65.00
10121;DHT22;5100;45.176;5.714;2023-03-14T13:25:57;17.00;65.10
10121;DHT22;5100;45.176;5.714;2023-03-14T13:28:26;17.00;64.80
10121;DHT22;5100;45.176;5.714;2023-03-14T13:30:58;17.00;64.50
10121;DHT22;5100;45.176;5.714;2023-03-14T13:33:25;17.00;64.80
10121;DHT22;5100;45.176;5.714;2023-03-14T13:36:02;17.00;64.60
10121;DHT22;5100;45.176;5.714;2023-03-14T13:38:32;17.00;64.20
10121;DHT22;5100;45.176;5.714;2023-03-14T13:41:05;16.90;63.90
10121;DHT22;5100;45.176;5.714;2023-03-14T13:43:36;16.90;64.60
10121;DHT22;5100;45.176;5.714;2023-03-14T13:46:22;16.90;65.20
10121;DHT22;5100;45.176;5.714;2023-03-14T13:48:59;16.90;62.40
10121;DHT22;5100;45.176;5.714;2023-03-14T13:51:27;16.90;61.70
10121;DHT22;5100;45.176;5.714;2023-03-14T13:53:58;16.90;61.90
10121;DHT22;5100;45.176;5.714;2023-03-14T13:56:27;16.90;61.00
10121;DHT22;5100;45.176;5.714;2023-03-14T13:58:54;16.90;60.50
10121;DHT22;5100;45.176;5.714;2023-03-14T14:01:31;16.80;59.10
10121;DHT22;5100;45.176;5.714;2023-03-14T14:04:06;16.80;58.30
10121;DHT22;5100;45.176;5.714;2023-03-14T14:06:36;16.70;58.90
10121;DHT22;5100;45.176;5.714;2023-03-14T14:09:19;16.70;59.10
10121;DHT22;5100;45.176;5.714;2023-03-14T14:14:32;16.60;60.30
10121;DHT22;5100;45.176;5.714;2023-03-14T14:17:00;16.60;59.60
10121;DHT22;5100;45.176;5.714;2023-03-14T14:19:29;16.60;60.10
10121;DHT22;5100;45.176;5.714;2023-03-14T14:21:56;16.50;60.00
10121;DHT22;5100;45.176;5.714;2023-03-14T14:24:24;16.50;59.60
10121;DHT22;5100;45.176;5.714;2023-03-14T14:26:59;16.50;59.40
10121;DHT22;5100;45.176;5.714;2023-03-14T14:29:31;16.50;59.30
10121;DHT22;5100;45.176;5.714;2023-03-14T14:32:12;16.40;58.00
10121;DHT22;5100;45.176;5.714;2023-03-14T14:34:46;16.40;59.60
10121;DHT22;5100;45.176;5.714;2023-03-14T14:37:43;16.40;61.10
10121;DHT22;5100;45.176;5.714;2023-03-14T14:40:18;16.40;62.30
10121;DHT22;5100;45.176;5.714;2023-03-14T14:42:45;16.40;61.20
10121;DHT22;5100;45.176;5.714;2023-03-14T14:45:16;16.40;60.80
10121;DHT22;5100;45.176;5.714;2023-03-14T14:48:02;16.40;61.50
10121;DHT22;5100;45.176;5.714;2023-03-14T14:50:37;16.40;60.50
10121;DHT22;5100;45.176;5.714;2023-03-14T14:53:26;16.30;60.50
10121;DHT22;5100;45.176;5.714;2023-03-14T14:55:59;16.30;61.00
10121;DHT22;5100;45.176;5.714;2023-03-14T14:58:28;16.30;59.30
10121;DHT22;5100;45.176;5.714;2023-03-14T15:01:11;16.30;59.00
10121;DHT22;5100;45.176;5.714;2023-03-14T15:03:42;16.30;58.90
10121;DHT22;5100;45.176;5.714;2023-03-14T15:06:11;16.30;58.90
10121;DHT22;5100;45.176;5.714;2023-03-14T15:08:38;16.30;58.20
10121;DHT22;5100;45.176;5.714;2023-03-14T15:11:05;16.30;58.40
10121;DHT22;5100;45.176;5.714;2023-03-14T15:13:31;16.30;58.30
10121;DHT22;5100;45.176;5.714;2023-03-14T15:15:57;16.20;58.80
10121;DHT22;5100;45.176;5.714;2023-03-14T15:18:25;16.20;61.30
10121;DHT22;5100;45.176;5.714;2023-03-14T15:20:54;16.10;65.20
10121;DHT22;5100;45.176;5.714;2023-03-14T15:23:21;16.10;66.60
10121;DHT22;5100;45.176;5.714;2023-03-14T15:25:47;16.00;67.30
10121;DHT22;5100;45.176;5.714;2023-03-14T15:28:22;15.90;68.40
10121;DHT22;5100;45.176;5.714;2023-03-14T15:30:51;15.80;68.00
10121;DHT22;5100;45.176;5.714;2023-03-14T15:33:18;15.70;68.70
10121;DHT22;5100;45.176;5.714;2023-03-14T15:35:44;15.60;69.30
10121;DHT22;5100;45.176;5.714;2023-03-14T15:38:12;15.60;69.30
10121;DHT22;5100;45.176;5.714;2023-03-14T15:40:39;15.60;68.50
10121;DHT22;5100;45.176;5.714;2023-03-14T15:43:06;15.50;67.60
10121;DHT22;5100;45.176;5.714;2023-03-14T15:45:33;15.50;66.90
10121;DHT22;5100;45.176;5.714;2023-03-14T15:47:59;15.50;66.50
10121;DHT22;5100;45.176;5.714;2023-03-14T15:50:26;15.50;66.10
10121;DHT22;5100;45.176;5.714;2023-03-14T15:52:53;15.40;65.50
10121;DHT22;5100;45.176;5.714;2023-03-14T15:55:19;15.40;64.80
10121;DHT22;5100;45.176;5.714;2023-03-14T15:57:45;15.40;64.70
10121;DHT22;5100;45.176;5.714;2023-03-14T16:00:14;15.40;63.70
10121;DHT22;5100;45.176;5.714;2023-03-14T16:02:43;15.40;62.70
10121;DHT22;5100;45.176;5.714;2023-03-14T16:05:10;15.40;61.60
10121;DHT22;5100;45.176;5.714;2023-03-14T16:07:36;15.40;61.60
10121;DHT22;5100;45.176;5.714;2023-03-14T16:10:04;15.40;61.90
10121;DHT22;5100;45.176;5.714;2023-03-14T16:12:31;15.40;62.00
10121;DHT22;5100;45.176;5.714;2023-03-14T16:14:57;15.40;63.00
10121;DHT22;5100;45.176;5.714;2023-03-14T16:17:23;15.40;63.10
10121;DHT22;5100;45.176;5.714;2023-03-14T16:19:50;15.30;62.20
10121;DHT22;5100;45.176;5.714;2023-03-14T16:22:16;15.30;61.00
10121;DHT22;5100;45.176;5.714;2023-03-14T16:24:43;15.30;60.90
10121;DHT22;5100;45.176;5.714;2023-03-14T16:27:09;15.30;60.60
10121;DHT22;5100;45.176;5.714;2023-03-14T16:29:35;15.30;59.50
10121;DHT22;5100;45.176;5.714;2023-03-14T16:32:01;15.30;58.60
10121;DHT22;5100;45.176;5.714;2023-03-14T16:34:27;15.30;58.30
10121;DHT22;5100;45.176;5.714;2023-03-14T16:36:53;15.30;58.10
10121;DHT22;5100;45.176;5.714;2023-03-14T16:39:21;15.20;58.40
10121;DHT22;5100;45.176;5.714;2023-03-14T16:41:47;15.20;58.20
10121;DHT22;5100;45.176;5.714;2023-03-14T16:44:13;15.20;59.20
10121;DHT22;5100;45.176;5.714;2023-03-14T16:46:39;15.20;59.40
10121;DHT22;5100;45.176;5.714;2023-03-14T16:49:06;15.20;58.90
10121;DHT22;5100;45.176;5.714;2023-03-14T16:51:32;15.20;59.30
10121;DHT22;5100;45.176;5.714;2023-03-14T16:53:59;15.10;59.40